Apartado, Colombia

7:37 AM COT on March 06, 2015 (GMT -0500)
Antonio Roldan Betancourt | Change Station
CLOSE
Current Station
Airport
Location: Apartado,
Elevation: 66 ft
Nearby Weather Stations

Elev 66 ft 7.82 °N, 76.72 °W | Updated 37 minutes ago

Scattered Clouds
Scattered Clouds
77 °F
Feels Like 77 °F
N
4
Wind Variable Wind from ENE

Today
High -- | Low -- °F
--% Chance of Precip.
Yesterday
High -- | Low -- °F
Precip. -- in
6:17 AM 6:18 PM
Waxing Gibbous, 99% visible
Pressure 29.83 in
Visibility 4.3 miles
Clouds Scattered Clouds 1500 ft
Dew Point 75 °F
Humidity 94%
Rainfall 0.00 in
Snow Depth Not available.
UV 0 out of 12
Pollen Not available.
Air Quality Not available.
Flu Activity Not available.
METAR SKLC 061200Z 06003KT 7000 SCT015 25/24 A2983 RMK HZ

More Conditions Fewer Conditions

Pressure 29.83 in
Visibility 4.3 miles
Clouds Scattered Clouds 1500 ft
Dew Point 75 °F
Humidity 94%
Rainfall 0.00 in
Snow Depth Not available.
UV 0 out of 12
Pollen Not available.
Air Quality Not available.
Flu Activity Not available.
METAR SKLC 061200Z 06003KT 7000 SCT015 25/24 A2983 RMK HZ

More Conditions Fewer Conditions

10-Day Weather Forecast

Almanac

Astronomy

Mar. 06, 2015 Rise Set
Actual Time
Civil Twilight
Nautical Twilight
Astronomical Twilight
Moon
Length of Visible Light
Length of Day
Tomorrow will be .
, % of the Moon is Illuminated

Today's Extremes

Country Highs Country Lows

Community

WunderPhotos

Upload Photos

1,803,245 photos uploaded!

WunderBlogs® & News

Nearby

Air Quality

  Air Quality AQ Index Pollutant
Not available.

Snow Depth

Station Depth Elevation

Earthquake Activity

City Distance Mag. Time & Date
Minimum magnitude displayed is 2.5.

Coastal Water Temperatures

Place Temperature

Nearby Weather Stations